Time;durP1;ratioP1;P1;durP2;ratioP2;P2;SDS_P1;SDS_P2;PMS_P1;PMS_P2;Temp;Humidity;BMP_temperature;BMP_pressure;BME280_temperature;BME280_humidity;BME280_pressure;Samples;Min_cycle;Max_cycle;Signal;HPM_P1;HPM_P2
2022/11/07 00:00:19;;;;;;;6.47;2.83;;;11.00;99.90;;;;;;5029481;28;20049;-84
2022/11/07 00:02:45;;;;;;;9.13;3.20;;;11.00;99.90;;;;;;5012871;28;20064;-84
2022/11/07 00:05:10;;;;;;;7.50;2.67;;;11.10;99.90;;;;;;5013032;28;20127;-84
2022/11/07 00:07:36;;;;;;;8.98;2.78;;;11.10;99.90;;;;;;5013217;28;20085;-84
2022/11/07 00:10:02;;;;;;;9.73;3.00;;;11.20;99.90;;;;;;5029473;28;20511;-84
2022/11/07 00:12:28;;;;;;;5.03;2.15;;;11.20;99.90;;;;;;5012458;28;20383;-84
2022/11/07 00:14:53;;;;;;;8.48;2.95;;;11.30;99.90;;;;;;5029016;28;20044;-83
2022/11/07 00:17:19;;;;;;;10.27;3.20;;;11.30;99.90;;;;;;5011660;28;20060;-84
2022/11/07 00:19:44;;;;;;;9.23;2.85;;;11.30;99.90;;;;;;5070209;28;20451;-84
2022/11/07 00:22:10;;;;;;;11.38;3.53;;;11.30;99.90;;;;;;5090157;28;20519;-84
2022/11/07 00:24:35;;;;;;;7.97;2.75;;;11.30;99.90;;;;;;5090293;28;20123;-84
2022/11/07 00:27:01;;;;;;;8.68;2.40;;;11.30;99.90;;;;;;5090508;28;20040;-84
2022/11/07 00:29:27;;;;;;;6.38;2.33;;;11.40;99.90;;;;;;5090410;28;20040;-84
2022/11/07 00:31:52;;;;;;;9.38;3.13;;;11.40;99.90;;;;;;5090456;28;20044;-84
2022/11/07 00:34:18;;;;;;;11.30;2.95;;;11.40;99.90;;;;;;5091397;28;20040;-84
2022/11/07 00:36:44;;;;;;;8.60;2.45;;;11.50;99.90;;;;;;5090710;28;20481;-84
2022/11/07 00:39:10;;;;;;;9.60;2.70;;;11.50;99.90;;;;;;5090348;28;20516;-84
2022/11/07 00:41:36;;;;;;;10.15;3.22;;;11.50;99.90;;;;;;5090339;28;20093;-84
2022/11/07 00:44:01;;;;;;;11.23;3.17;;;11.50;99.90;;;;;;5073150;28;20032;-84
2022/11/07 00:46:27;;;;;;;8.98;2.85;;;11.50;99.90;;;;;;5090193;28;20127;-84
2022/11/07 00:48:53;;;;;;;8.77;3.00;;;11.50;99.90;;;;;;5090637;28;20127;-84
2022/11/07 00:51:21;;;;;;;12.23;3.38;;;11.60;99.90;;;;;;5073473;28;20508;-84
2022/11/07 00:53:48;;;;;;;8.68;2.45;;;11.60;99.90;;;;;;5072984;28;20079;-83
2022/11/07 00:56:16;;;;;;;10.50;2.53;;;11.60;99.90;;;;;;5072896;28;20516;-84
2022/11/07 00:58:43;;;;;;;7.10;2.20;;;11.60;99.90;;;;;;5072871;28;20036;-84
2022/11/07 01:01:16;;;;;;;9.40;2.75;;;11.60;99.90;;;;;;5089852;28;20112;-84
2022/11/07 01:06:27;;;;;;;8.52;2.83;;;11.50;99.90;;;;;;5088265;28;20036;-84
2022/11/07 01:08:55;;;;;;;7.85;2.85;;;11.50;99.90;;;;;;5090074;28;20040;-84
2022/11/07 01:11:21;;;;;;;6.40;2.47;;;11.40;99.90;;;;;;5090186;28;20051;-83
2022/11/07 01:13:47;;;;;;;11.35;2.72;;;11.40;99.90;;;;;;5089707;28;20048;-83
2022/11/07 01:16:12;;;;;;;6.45;2.40;;;11.40;99.90;;;;;;5089622;28;20040;-84
2022/11/07 01:18:38;;;;;;;9.27;2.83;;;11.40;99.90;;;;;;5072638;28;20044;-84
2022/11/07 01:21:05;;;;;;;7.28;2.22;;;11.40;99.90;;;;;;5073154;28;20020;-84
2022/11/07 01:23:31;;;;;;;8.48;2.30;;;11.40;99.90;;;;;;5072685;28;20492;-84
2022/11/07 01:25:56;;;;;;;8.93;2.85;;;11.40;99.90;;;;;;5090140;28;20047;-84
2022/11/07 01:28:22;;;;;;;7.50;2.20;;;11.40;99.90;;;;;;5075483;28;20040;-84
2022/11/07 01:30:48;;;;;;;9.55;2.47;;;11.40;99.90;;;;;;5093622;28;20127;-84
2022/11/07 01:33:14;;;;;;;6.63;2.25;;;11.40;99.90;;;;;;5076363;28;20047;-84
2022/11/07 01:35:41;;;;;;;8.05;2.70;;;11.50;99.90;;;;;;5093507;28;20043;-84
2022/11/07 01:38:06;;;;;;;10.20;3.47;;;11.50;99.90;;;;;;5093446;28;20051;-84
2022/11/07 01:41:19;;;;;;;8.25;2.42;;;11.50;99.90;;;;;;5076165;28;20040;-84
2022/11/07 01:43:18;;;;;;;4.78;1.90;;;11.50;99.90;;;;;;5092881;28;20556;-84
2022/11/07 01:45:44;;;;;;;9.00;2.10;;;11.60;99.90;;;;;;5076480;28;20119;-84
2022/11/07 01:48:09;;;;;;;7.85;2.00;;;11.60;99.90;;;;;;5076703;28;20127;-84
2022/11/07 01:50:35;;;;;;;6.25;2.53;;;11.60;99.90;;;;;;5093215;28;20043;-83
2022/11/07 01:53:00;;;;;;;8.75;2.50;;;11.70;99.90;;;;;;5092698;28;20044;-84
2022/11/07 01:55:30;;;;;;;10.32;2.45;;;11.70;99.90;;;;;;5093141;28;20044;-84
2022/11/07 01:58:00;;;;;;;8.90;2.55;;;11.70;99.90;;;;;;5093017;28;20044;-84
2022/11/07 02:00:26;;;;;;;10.98;2.00;;;11.70;99.90;;;;;;5092992;28;20043;-84
2022/11/07 02:02:57;;;;;;;7.50;2.72;;;11.70;99.90;;;;;;5092693;28;20513;-83
2022/11/07 02:05:31;;;;;;;7.63;2.15;;;11.70;99.90;;;;;;5092968;28;20036;-84
2022/11/07 02:07:58;;;;;;;6.20;2.38;;;11.80;99.90;;;;;;5092923;28;20136;-84
2022/11/07 02:10:24;;;;;;;10.30;2.50;;;11.80;99.90;;;;;;5092945;28;20618;-84
2022/11/07 02:12:50;;;;;;;10.57;3.72;;;11.80;99.90;;;;;;5092415;28;20044;-84
2022/11/07 02:15:16;;;;;;;9.95;2.47;;;11.90;99.90;;;;;;5092793;28;20185;-84
2022/11/07 02:17:41;;;;;;;7.55;2.10;;;11.80;99.90;;;;;;5092618;28;20032;-84
2022/11/07 02:20:07;;;;;;;6.15;1.88;;;11.80;99.90;;;;;;5092674;28;20036;-84
2022/11/07 02:22:52;;;;;;;10.45;2.63;;;11.80;99.90;;;;;;5075706;28;20040;-84
2022/11/07 02:25:19;;;;;;;8.25;2.75;;;11.80;99.90;;;;;;5076032;28;20036;-84
2022/11/07 02:27:47;;;;;;;10.50;3.25;;;11.80;99.90;;;;;;5092470;28;20040;-84
2022/11/07 02:30:19;;;;;;;10.25;2.42;;;11.80;99.90;;;;;;5092517;28;20048;-84
2022/11/07 02:32:45;;;;;;;9.07;2.53;;;11.80;99.90;;;;;;5092394;28;20567;-84
2022/11/07 02:35:35;;;;;;;10.93;2.78;;;11.80;99.90;;;;;;5075529;28;20047;-84
2022/11/07 02:38:04;;;;;;;5.22;2.35;;;11.80;99.90;;;;;;5092115;28;20046;-84
2022/11/07 02:40:30;;;;;;;14.48;2.55;;;11.80;99.90;;;;;;5092517;28;20040;-84
2022/11/07 02:42:58;;;;;;;7.45;2.28;;;11.80;99.90;;;;;;5074996;28;20036;-84
2022/11/07 02:45:29;;;;;;;8.18;2.55;;;11.80;99.90;;;;;;5092192;28;20036;-84
2022/11/07 02:47:55;;;;;;;11.55;2.40;;;11.80;99.90;;;;;;5092160;28;20036;-84
2022/11/07 02:50:21;;;;;;;8.30;2.15;;;11.80;99.90;;;;;;5092093;28;20040;-84
2022/11/07 02:52:46;;;;;;;9.85;2.65;;;11.80;99.90;;;;;;5091699;28;20043;-84
2022/11/07 02:55:13;;;;;;;12.30;2.80;;;11.80;99.90;;;;;;5091906;28;20070;-84
2022/11/07 02:57:39;;;;;;;7.95;2.63;;;11.80;99.90;;;;;;5074939;28;20040;-84
2022/11/07 03:00:07;;;;;;;8.10;2.15;;;11.80;99.90;;;;;;5075114;28;20047;-84
2022/11/07 03:02:32;;;;;;;12.02;2.88;;;11.70;99.90;;;;;;5075024;28;20032;-84
2022/11/07 03:04:58;;;;;;;9.98;2.67;;;11.70;99.90;;;;;;5091757;28;20043;-84
2022/11/07 03:07:24;;;;;;;8.02;2.55;;;11.70;99.90;;;;;;5091700;28;20032;-84
2022/11/07 03:09:49;;;;;;;11.93;3.03;;;11.70;99.90;;;;;;5091772;28;20032;-84
2022/11/07 03:12:15;;;;;;;9.35;2.60;;;11.70;99.90;;;;;;5074262;28;20047;-84
2022/11/07 03:14:41;;;;;;;8.30;3.25;;;11.70;99.90;;;;;;5091870;28;20043;-84
2022/11/07 03:17:07;;;;;;;10.30;2.45;;;11.70;99.90;;;;;;5074648;28;20036;-83
2022/11/07 03:19:32;;;;;;;11.85;3.00;;;11.70;99.90;;;;;;5091550;28;20036;-83
2022/11/07 03:21:58;;;;;;;7.60;2.28;;;11.70;99.90;;;;;;5091674;28;20432;-83
2022/11/07 03:24:24;;;;;;;8.27;2.45;;;11.70;99.90;;;;;;5091187;28;20516;-84
2022/11/07 03:26:49;;;;;;;10.95;2.20;;;11.70;99.90;;;;;;5091587;28;20040;-84
2022/11/07 03:29:15;;;;;;;11.32;2.45;;;11.70;99.90;;;;;;5074453;28;20497;-84
2022/11/07 03:31:40;;;;;;;8.65;2.53;;;11.70;99.90;;;;;;5091183;28;20036;-84
2022/11/07 03:34:06;;;;;;;6.68;2.00;;;11.70;99.90;;;;;;5090918;28;20433;-84
2022/11/07 03:36:32;;;;;;;8.13;2.17;;;11.70;99.90;;;;;;5074392;28;20043;-84
2022/11/07 03:38:58;;;;;;;6.95;2.55;;;11.60;99.90;;;;;;5091124;28;20079;-84
2022/11/07 03:41:24;;;;;;;7.53;2.63;;;11.60;99.90;;;;;;5091054;28;20097;-84
2022/11/07 03:43:49;;;;;;;7.78;2.40;;;11.70;99.90;;;;;;5073851;28;20386;-83
2022/11/07 03:46:15;;;;;;;10.15;2.63;;;11.70;99.90;;;;;;5091335;28;20397;-83
2022/11/07 03:48:41;;;;;;;8.93;2.33;;;11.70;99.90;;;;;;5074356;28;20040;-83
2022/11/07 03:51:08;;;;;;;10.98;2.70;;;11.70;99.90;;;;;;5073870;28;20036;-83
2022/11/07 03:53:34;;;;;;;8.00;1.95;;;11.60;99.90;;;;;;5073668;28;20040;-84
2022/11/07 03:56:08;;;;;;;7.97;2.38;;;11.60;99.90;;;;;;5073852;28;20039;-84
2022/11/07 03:58:34;;;;;;;8.35;2.38;;;11.70;99.90;;;;;;5090874;28;20115;-84
2022/11/07 04:01:00;;;;;;;14.60;3.42;;;11.60;99.90;;;;;;5073946;28;20047;-84
2022/11/07 04:03:26;;;;;;;7.93;2.58;;;11.70;99.90;;;;;;5073636;28;20032;-84
2022/11/07 04:05:51;;;;;;;7.63;2.78;;;11.70;99.90;;;;;;5074180;28;20083;-84
2022/11/07 04:08:17;;;;;;;10.75;2.55;;;11.70;99.90;;;;;;5090747;28;20127;-84
2022/11/07 04:10:43;;;;;;;13.82;3.83;;;11.70;99.90;;;;;;5074053;28;20097;-84
2022/11/07 04:17:17;;;;;;;9.95;3.55;;;11.80;99.90;;;;;;5090673;28;20044;-83
2022/11/07 04:18:54;;;;;;;9.52;2.63;;;11.70;99.90;;;;;;5090377;28;20055;-84
2022/11/07 04:21:20;;;;;;;7.05;2.65;;;11.80;99.90;;;;;;5090592;28;20089;-84
2022/11/07 04:23:46;;;;;;;6.53;2.20;;;11.70;99.90;;;;;;5090087;28;20028;-84
2022/11/07 04:28:55;;;;;;;12.40;2.40;;;11.70;99.90;;;;;;5090522;28;20435;-84
2022/11/07 04:31:21;;;;;;;14.75;3.65;;;11.70;99.90;;;;;;5090601;28;20032;-83
2022/11/07 04:33:47;;;;;;;9.68;2.90;;;11.70;99.90;;;;;;5090078;28;20515;-83
2022/11/07 04:36:12;;;;;;;9.35;2.42;;;11.70;99.90;;;;;;5090499;28;20043;-84
2022/11/07 04:38:38;;;;;;;11.98;2.60;;;11.70;99.90;;;;;;5090363;28;20041;-84
2022/11/07 04:41:04;;;;;;;8.85;3.08;;;11.70;99.90;;;;;;5090440;28;20093;-84
2022/11/07 04:43:29;;;;;;;9.27;2.40;;;11.80;99.90;;;;;;5073230;28;20102;-84
2022/11/07 04:45:55;;;;;;;12.25;3.38;;;11.80;99.90;;;;;;5090320;28;20038;-84
2022/11/07 04:48:20;;;;;;;8.45;2.75;;;11.80;99.90;;;;;;5073783;28;20044;-84
2022/11/07 04:50:46;;;;;;;9.73;2.95;;;11.80;99.90;;;;;;5073598;28;20040;-83
2022/11/07 04:53:14;;;;;;;7.45;2.78;;;11.80;99.90;;;;;;5089985;28;20028;-84
2022/11/07 04:55:40;;;;;;;13.60;3.05;;;11.80;99.90;;;;;;5090291;28;20047;-84
2022/11/07 04:58:06;;;;;;;8.82;2.95;;;11.80;99.90;;;;;;5090226;28;20048;-84
2022/11/07 05:00:31;;;;;;;8.25;2.78;;;11.80;99.90;;;;;;5090092;28;20034;-84
2022/11/07 05:02:57;;;;;;;9.65;2.55;;;11.70;99.90;;;;;;5092156;28;20036;-84
2022/11/07 05:05:23;;;;;;;12.15;4.72;;;11.70;99.90;;;;;;5077165;28;20068;-84
2022/11/07 05:07:48;;;;;;;10.45;2.90;;;11.70;99.90;;;;;;5094129;28;20040;-84
2022/11/07 05:10:26;;;;;;;9.88;3.42;;;11.70;99.90;;;;;;5094282;28;20039;-84
2022/11/07 05:12:52;;;;;;;8.70;3.17;;;11.60;99.90;;;;;;5076761;28;20094;-84
2022/11/07 05:15:18;;;;;;;14.05;3.35;;;11.60;99.90;;;;;;5093798;28;20040;-84
2022/11/07 05:17:44;;;;;;;8.95;2.83;;;11.70;99.90;;;;;;5094066;28;20072;-84
2022/11/07 05:20:32;;;;;;;11.70;3.08;;;11.70;99.90;;;;;;5076960;28;20075;-84
2022/11/07 05:23:17;;;;;;;8.25;2.72;;;11.70;99.90;;;;;;5076524;28;20028;-84
2022/11/07 05:25:50;;;;;;;12.20;3.22;;;11.80;99.90;;;;;;5077138;28;20047;-84
2022/11/07 05:28:27;;;;;;;11.40;2.88;;;11.70;99.90;;;;;;5093715;28;20054;-84
2022/11/07 05:30:56;;;;;;;7.65;2.22;;;11.70;99.90;;;;;;5093631;28;20123;-84
2022/11/07 05:33:22;;;;;;;11.88;3.50;;;11.70;99.90;;;;;;5093244;28;20052;-84
2022/11/07 05:35:48;;;;;;;10.18;2.83;;;11.70;99.90;;;;;;5076697;28;20040;-84
2022/11/07 05:38:14;;;;;;;9.60;2.90;;;11.70;99.90;;;;;;5093477;28;20124;-84
2022/11/07 05:40:40;;;;;;;11.00;2.75;;;11.70;99.90;;;;;;5093501;28;20599;-84
2022/11/07 05:43:07;;;;;;;8.27;2.97;;;11.60;99.90;;;;;;5076140;28;20040;-84
2022/11/07 05:45:37;;;;;;;9.23;2.72;;;11.60;99.90;;;;;;5093439;28;20505;-84
2022/11/07 05:48:05;;;;;;;9.02;3.13;;;11.60;99.90;;;;;;5093597;28;20047;-83
2022/11/07 05:50:30;;;;;;;12.60;3.80;;;11.60;99.90;;;;;;5076322;28;20040;-83
2022/11/07 05:52:56;;;;;;;11.57;3.10;;;11.60;99.90;;;;;;5092863;28;20047;-84
2022/11/07 05:55:23;;;;;;;10.70;2.80;;;11.60;99.90;;;;;;5076585;28;20047;-84
2022/11/07 05:57:49;;;;;;;11.95;3.28;;;11.70;99.90;;;;;;5076252;28;20687;-84
2022/11/07 06:00:15;;;;;;;8.57;2.50;;;11.70;99.90;;;;;;5093130;28;20074;-84
2022/11/07 06:02:41;;;;;;;10.95;2.75;;;11.70;99.90;;;;;;5092807;28;20052;-84
2022/11/07 06:05:07;;;;;;;10.88;2.92;;;11.70;99.90;;;;;;5075993;28;20047;-84
2022/11/07 06:07:37;;;;;;;12.10;3.35;;;11.70;99.90;;;;;;5092910;28;20032;-84
2022/11/07 06:10:04;;;;;;;10.75;3.33;;;11.80;99.90;;;;;;5075995;28;20036;-84
2022/11/07 06:12:30;;;;;;;16.02;3.45;;;11.80;99.90;;;;;;5074814;28;20145;-84
2022/11/07 06:14:56;;;;;;;9.93;2.65;;;11.80;99.90;;;;;;5091637;28;20505;-84
2022/11/07 06:17:22;;;;;;;10.35;2.83;;;11.80;99.90;;;;;;5092781;28;20042;-84
2022/11/07 06:19:47;;;;;;;14.90;4.60;;;11.80;99.90;;;;;;5092553;28;20047;-84
2022/11/07 06:22:13;;;;;;;13.73;3.58;;;11.90;99.90;;;;;;5093760;28;20119;-84
2022/11/07 06:24:38;;;;;;;10.35;3.00;;;11.90;99.90;;;;;;5075690;28;20122;-84
2022/11/07 06:27:04;;;;;;;10.35;3.50;;;11.90;99.90;;;;;;5092539;28;20122;-84
2022/11/07 06:29:29;;;;;;;11.27;3.70;;;11.90;99.90;;;;;;5092543;28;20122;-84
2022/11/07 06:31:55;;;;;;;11.48;2.83;;;11.90;99.90;;;;;;5092480;28;20480;-84
2022/11/07 06:34:20;;;;;;;10.35;3.17;;;11.80;99.90;;;;;;5075114;28;20044;-84
2022/11/07 06:36:51;;;;;;;13.63;4.70;;;11.90;99.90;;;;;;5092605;28;20044;-84
2022/11/07 06:39:16;;;;;;;12.30;3.40;;;11.90;99.90;;;;;;5075211;28;20447;-84
2022/11/07 06:41:42;;;;;;;10.95;3.30;;;11.90;99.90;;;;;;5074719;28;20036;-84
2022/11/07 06:44:07;;;;;;;16.63;3.20;;;11.90;99.90;;;;;;5092135;28;20040;-84
2022/11/07 06:46:33;;;;;;;12.73;3.22;;;11.80;99.90;;;;;;5092139;28;20043;-84
2022/11/07 06:48:58;;;;;;;14.52;3.28;;;11.90;99.90;;;;;;5091855;28;20051;-84
2022/11/07 06:51:24;;;;;;;10.43;3.15;;;11.90;99.90;;;;;;5075243;28;20047;-84
2022/11/07 06:53:49;;;;;;;13.73;2.90;;;11.90;99.90;;;;;;5091911;28;20126;-84
2022/11/07 06:56:15;;;;;;;15.93;5.38;;;11.90;99.90;;;;;;5075133;28;20036;-84
2022/11/07 06:58:41;;;;;;;13.57;3.85;;;11.90;99.90;;;;;;5091935;28;20047;-83
2022/11/07 07:01:08;;;;;;;14.13;3.05;;;12.00;99.90;;;;;;5091914;28;20168;-84
2022/11/07 07:03:34;;;;;;;8.40;2.58;;;11.90;99.90;;;;;;5074823;28;20055;-84
2022/11/07 07:06:05;;;;;;;10.27;2.63;;;11.90;99.90;;;;;;5091742;28;20044;-84
2022/11/07 07:08:32;;;;;;;10.10;2.95;;;11.90;99.90;;;;;;5091832;28;20040;-84
2022/11/07 07:11:05;;;;;;;9.60;2.83;;;11.80;99.90;;;;;;5074439;28;20043;-84
2022/11/07 07:13:31;;;;;;;14.20;2.90;;;11.90;99.90;;;;;;5074513;28;20646;-84
2022/11/07 07:15:57;;;;;;;11.68;3.10;;;11.90;99.90;;;;;;5091555;28;20132;-84
2022/11/07 07:18:25;;;;;;;14.43;3.15;;;11.80;99.90;;;;;;5091803;28;20089;-84
2022/11/07 07:21:00;;;;;;;11.35;3.35;;;11.80;99.90;;;;;;5091322;28;20032;-84
2022/11/07 07:23:26;;;;;;;14.35;3.80;;;11.80;99.90;;;;;;5091154;28;20124;-84
2022/11/07 07:25:51;;;;;;;12.18;2.85;;;11.80;99.90;;;;;;5088710;28;20044;-84
2022/11/07 07:28:17;;;;;;;10.02;2.63;;;11.80;99.90;;;;;;5073936;28;20043;-84
2022/11/07 07:30:42;;;;;;;11.15;2.78;;;11.80;99.90;;;;;;5074160;28;20089;-83
2022/11/07 07:33:08;;;;;;;13.07;3.42;;;11.80;99.90;;;;;;5090445;28;20492;-84
2022/11/07 07:35:33;;;;;;;16.50;3.85;;;11.80;99.90;;;;;;5090760;28;20044;-83
2022/11/07 07:37:59;;;;;;;13.93;2.88;;;11.80;99.90;;;;;;5090726;28;20055;-83
2022/11/07 07:40:24;;;;;;;10.38;2.80;;;11.80;99.90;;;;;;5090986;28;20040;-84
2022/11/07 07:42:50;;;;;;;16.90;3.88;;;11.80;99.90;;;;;;5073455;28;20036;-84
2022/11/07 07:45:16;;;;;;;12.27;3.08;;;11.90;99.90;;;;;;5073657;28;20062;-84
2022/11/07 07:47:42;;;;;;;10.50;2.90;;;11.90;99.90;;;;;;5090314;28;20489;-84
2022/11/07 07:50:11;;;;;;;13.50;3.65;;;11.90;99.90;;;;;;5089158;28;20040;-84
2022/11/07 07:52:36;;;;;;;13.30;4.10;;;11.90;99.90;;;;;;5088816;28;20032;-84
2022/11/07 07:55:02;;;;;;;10.10;2.63;;;12.00;99.90;;;;;;5089122;28;20059;-84
2022/11/07 07:57:27;;;;;;;14.52;3.45;;;12.00;99.90;;;;;;5072285;28;20032;-84
2022/11/07 07:59:53;;;;;;;12.05;3.20;;;12.10;99.90;;;;;;5088820;28;20032;-84
2022/11/07 08:02:19;;;;;;;16.38;3.35;;;12.10;99.90;;;;;;5088693;28;20032;-84
2022/11/07 08:04:44;;;;;;;13.35;3.28;;;12.00;99.90;;;;;;5088879;28;20032;-84
2022/11/07 08:07:10;;;;;;;15.75;3.63;;;12.10;99.90;;;;;;5088938;28;20040;-84
2022/11/07 08:09:35;;;;;;;8.55;2.17;;;12.10;99.90;;;;;;5090429;28;20036;-84
2022/11/07 08:12:07;;;;;;;16.15;3.80;;;12.20;99.90;;;;;;5072995;28;20571;-84
2022/11/07 08:14:33;;;;;;;12.27;2.70;;;12.20;99.90;;;;;;5089866;28;20523;-84
2022/11/07 08:16:59;;;;;;;10.10;3.15;;;12.20;99.90;;;;;;5073060;28;20118;-84
2022/11/07 08:19:25;;;;;;;14.07;2.72;;;12.20;99.90;;;;;;5089072;28;20127;-84
2022/11/07 08:21:51;;;;;;;11.05;2.78;;;12.30;99.90;;;;;;5088483;28;21004;-84
2022/11/07 08:24:17;;;;;;;13.80;3.42;;;12.30;99.90;;;;;;5089941;28;20140;-84
2022/11/07 08:26:43;;;;;;;13.93;2.55;;;12.30;99.90;;;;;;5073205;28;20036;-84
2022/11/07 08:29:09;;;;;;;13.35;2.75;;;12.30;99.90;;;;;;5073293;28;20093;-84
2022/11/07 08:31:35;;;;;;;11.45;2.63;;;12.40;99.90;;;;;;5090304;28;20126;-84
2022/11/07 08:34:03;;;;;;;13.88;3.15;;;12.40;99.90;;;;;;5073142;28;20558;-84
2022/11/07 08:36:28;;;;;;;10.40;2.55;;;12.40;99.90;;;;;;5090011;28;20119;-84
2022/11/07 08:38:54;;;;;;;10.95;3.25;;;12.40;99.90;;;;;;5077254;28;20132;-84
2022/11/07 08:41:20;;;;;;;11.88;3.00;;;12.40;99.90;;;;;;5094187;28;20093;-84
2022/11/07 08:43:47;;;;;;;10.45;3.13;;;12.40;99.90;;;;;;5076873;28;20061;-84
2022/11/07 08:46:13;;;;;;;12.88;3.17;;;12.50;99.90;;;;;;5077102;28;20516;-84
2022/11/07 08:48:39;;;;;;;14.15;5.20;;;12.50;99.90;;;;;;5094322;28;20040;-84
2022/11/07 08:51:04;;;;;;;14.73;4.45;;;12.60;99.90;;;;;;5094269;28;20044;-84
2022/11/07 08:53:30;;;;;;;12.15;3.42;;;12.60;99.90;;;;;;5093638;28;20051;-84
2022/11/07 08:56:09;;;;;;;12.77;2.90;;;12.60;99.90;;;;;;5093007;28;20127;-84
2022/11/07 08:58:35;;;;;;;7.15;1.92;;;12.60;99.90;;;;;;5093324;28;20161;-84
2022/11/07 09:01:05;;;;;;;12.27;2.63;;;12.60;99.90;;;;;;5093268;28;20047;-84
2022/11/07 09:03:33;;;;;;;12.23;2.88;;;12.60;99.90;;;;;;5093234;28;20036;-84
2022/11/07 09:05:58;;;;;;;14.80;4.30;;;12.60;99.90;;;;;;5093652;28;20036;-84
2022/11/07 09:08:24;;;;;;;10.45;2.53;;;12.70;99.90;;;;;;5093500;28;20062;-84
2022/11/07 09:10:49;;;;;;;13.52;4.35;;;12.70;99.90;;;;;;5076859;28;20127;-84
2022/11/07 09:13:15;;;;;;;11.25;2.72;;;12.70;99.90;;;;;;5093493;28;20032;-84
2022/11/07 09:15:41;;;;;;;14.88;2.55;;;12.80;99.90;;;;;;5093467;28;20568;-84
2022/11/07 09:18:06;;;;;;;9.23;2.22;;;12.70;99.90;;;;;;5093053;28;20247;-84
2022/11/07 09:20:33;;;;;;;11.80;2.45;;;12.80;99.90;;;;;;5092526;28;20063;-84
2022/11/07 09:22:59;;;;;;;7.90;2.30;;;12.80;99.90;;;;;;5092850;28;20131;-84
2022/11/07 09:25:25;;;;;;;9.98;2.15;;;12.80;99.90;;;;;;5093587;28;20123;-84
2022/11/07 09:27:51;;;;;;;9.48;2.22;;;12.90;99.90;;;;;;5093058;28;20040;-84
2022/11/07 09:30:18;;;;;;;17.63;2.75;;;13.00;99.90;;;;;;5092389;28;20119;-84
2022/11/07 09:32:43;;;;;;;11.43;3.35;;;13.00;99.90;;;;;;5075785;28;20044;-85
2022/11/07 09:35:09;;;;;;;8.45;2.17;;;13.10;99.90;;;;;;5092723;28;20089;-84
2022/11/07 09:37:38;;;;;;;12.80;2.33;;;13.20;99.90;;;;;;5075437;28;20066;-84
2022/11/07 09:40:05;;;;;;;8.45;2.72;;;13.20;99.90;;;;;;5092407;28;20484;-84
2022/11/07 09:42:56;;;;;;;10.07;2.15;;;13.10;99.90;;;;;;5075613;28;20077;-84
2022/11/07 09:45:22;;;;;;;9.30;2.15;;;13.20;99.90;;;;;;5073109;28;20059;-84
2022/11/07 09:47:54;;;;;;;13.32;3.75;;;13.20;99.90;;;;;;5091614;28;20032;-84
2022/11/07 09:50:25;;;;;;;11.85;2.28;;;13.30;99.90;;;;;;5090004;28;20558;-84
2022/11/07 09:53:06;;;;;;;13.02;2.25;;;13.30;99.90;;;;;;5075663;28;20122;-84
2022/11/07 09:55:40;;;;;;;13.65;3.90;;;13.20;99.90;;;;;;5092665;28;20044;-84
2022/11/07 09:58:23;;;;;;;11.35;2.95;;;13.30;99.90;;;;;;5076037;28;20132;-84
2022/11/07 10:00:49;;;;;;;11.77;2.63;;;13.30;99.90;;;;;;5091532;28;20131;-84
2022/11/07 10:03:14;;;;;;;7.82;2.15;;;13.30;99.90;;;;;;5091306;28;20162;-84
2022/11/07 10:05:55;;;;;;;13.93;3.88;;;13.30;99.90;;;;;;5074733;28;20068;-84
2022/11/07 10:08:30;;;;;;;14.65;4.25;;;13.30;99.90;;;;;;5091868;28;20048;-84
2022/11/07 10:11:00;;;;;;;12.45;2.63;;;13.40;99.90;;;;;;5092127;28;20058;-84
2022/11/07 10:13:36;;;;;;;8.52;1.95;;;13.30;99.90;;;;;;5074093;28;20090;-84
2022/11/07 10:16:27;;;;;;;11.23;2.72;;;13.30;99.90;;;;;;5092605;28;20048;-84
2022/11/07 10:19:11;;;;;;;13.52;3.85;;;13.30;99.90;;;;;;5075081;28;20055;-84
2022/11/07 10:22:05;;;;;;;9.18;3.13;;;13.40;99.90;;;;;;5092051;28;20036;-84
2022/11/07 10:25:02;;;;;;;9.35;2.35;;;13.50;99.90;;;;;;5091509;28;20435;-84
2022/11/07 10:27:28;;;;;;;10.80;2.58;;;13.50;99.90;;;;;;5054272;28;20089;-84
2022/11/07 10:29:55;;;;;;;14.45;4.05;;;13.60;99.90;;;;;;5072011;28;20081;-83
2022/11/07 10:32:43;;;;;;;7.72;2.30;;;13.70;99.90;;;;;;5091522;28;20062;-84
2022/11/07 10:35:11;;;;;;;8.43;2.42;;;13.80;99.90;;;;;;5091761;28;20512;-84
2022/11/07 10:37:37;;;;;;;12.82;3.38;;;13.80;99.90;;;;;;5075253;28;20047;-84
2022/11/07 10:40:15;;;;;;;11.07;2.80;;;13.90;99.90;;;;;;5091165;28;20040;-84
2022/11/07 10:42:44;;;;;;;10.07;2.35;;;14.00;99.90;;;;;;5091757;28;20036;-84
2022/11/07 10:45:15;;;;;;;9.00;1.88;;;14.00;99.90;;;;;;5091511;28;20040;-83
2022/11/07 10:47:41;;;;;;;13.10;3.35;;;14.10;99.90;;;;;;5074300;28;20131;-84
2022/11/07 10:50:21;;;;;;;10.88;3.10;;;14.20;99.90;;;;;;5091714;28;20072;-84
2022/11/07 10:52:55;;;;;;;12.32;3.53;;;14.30;99.90;;;;;;5091147;28;20163;-84
2022/11/07 10:55:22;;;;;;;12.35;2.55;;;14.40;99.90;;;;;;5091589;28;20032;-84
2022/11/07 10:57:58;;;;;;;11.40;2.67;;;14.40;99.90;;;;;;5074747;28;20413;-84
2022/11/07 11:00:43;;;;;;;8.55;2.53;;;14.40;99.90;;;;;;5073833;28;20043;-84
2022/11/07 11:03:23;;;;;;;13.35;3.95;;;14.30;99.90;;;;;;5091017;28;20119;-84
2022/11/07 11:05:49;;;;;;;12.52;2.72;;;14.40;99.90;;;;;;5091260;28;20081;-84
2022/11/07 11:08:14;;;;;;;12.82;3.35;;;14.40;99.90;;;;;;5091332;28;20101;-84
2022/11/07 11:10:40;;;;;;;13.32;3.25;;;14.50;99.90;;;;;;5091089;28;20048;-84
2022/11/07 11:13:06;;;;;;;7.90;2.72;;;14.50;99.90;;;;;;5090851;28;20378;-84
2022/11/07 11:15:41;;;;;;;14.50;3.55;;;14.40;99.90;;;;;;5074311;28;20040;-84
2022/11/07 11:18:15;;;;;;;14.77;3.65;;;14.50;99.90;;;;;;5091257;28;20040;-84
2022/11/07 11:21:01;;;;;;;12.57;3.45;;;14.40;99.90;;;;;;5074158;28;20039;-84
2022/11/07 11:23:30;;;;;;;13.82;3.03;;;14.40;99.90;;;;;;5073617;28;20115;-84
2022/11/07 11:26:08;;;;;;;10.88;2.33;;;14.30;99.90;;;;;;5091166;28;20043;-84
2022/11/07 11:28:57;;;;;;;13.77;3.90;;;14.20;99.90;;;;;;5091022;28;20040;-84
2022/11/07 11:31:32;;;;;;;9.40;2.33;;;14.30;99.90;;;;;;5071679;28;20048;-84
2022/11/07 11:34:04;;;;;;;12.88;3.95;;;14.20;99.90;;;;;;5071723;28;20047;-84
2022/11/07 11:36:36;;;;;;;11.18;2.72;;;14.30;99.90;;;;;;5091055;28;20370;-84
2022/11/07 11:39:11;;;;;;;12.77;2.42;;;14.30;99.90;;;;;;5090561;28;20044;-84
2022/11/07 11:41:56;;;;;;;9.30;2.08;;;14.30;99.90;;;;;;5090544;28;20377;-84
2022/11/07 11:44:39;;;;;;;13.65;3.60;;;14.30;99.90;;;;;;5088256;28;20048;-84
2022/11/07 11:47:34;;;;;;;8.90;2.47;;;14.40;99.90;;;;;;5088931;28;20040;-84
2022/11/07 11:50:04;;;;;;;10.90;2.78;;;14.40;99.90;;;;;;5071007;28;20075;-84
2022/11/07 11:52:33;;;;;;;9.77;2.50;;;14.40;99.90;;;;;;5072905;28;20539;-84
2022/11/07 11:55:00;;;;;;;13.38;3.45;;;14.30;99.90;;;;;;5072997;28;20032;-84
2022/11/07 11:57:43;;;;;;;13.20;3.72;;;14.30;99.90;;;;;;5090188;28;20435;-84
2022/11/07 12:00:15;;;;;;;10.65;2.40;;;14.40;99.90;;;;;;5114732;27;20050;-84
2022/11/07 12:02:46;;;;;;;11.60;2.42;;;14.40;99.90;;;;;;5113575;27;20036;-84
2022/11/07 12:05:30;;;;;;;14.45;3.63;;;14.40;99.90;;;;;;5089265;28;20067;-84
2022/11/07 12:08:16;;;;;;;12.57;3.83;;;14.40;99.90;;;;;;5096100;28;20466;-84
2022/11/07 12:10:59;;;;;;;11.20;2.42;;;14.50;99.90;;;;;;5087925;28;20496;-84
2022/11/07 12:13:46;;;;;;;12.25;3.85;;;14.40;99.90;;;;;;5088176;28;20070;-84
2022/11/07 12:16:20;;;;;;;9.73;2.70;;;14.50;99.90;;;;;;5097733;28;20040;-84
2022/11/07 12:19:03;;;;;;;13.77;3.03;;;14.40;99.90;;;;;;5072213;28;20040;-84
2022/11/07 12:21:35;;;;;;;7.85;1.95;;;14.50;99.90;;;;;;5089321;28;20456;-85
2022/11/07 12:24:40;;;;;;;9.10;2.58;;;14.50;99.90;;;;;;5096037;28;20676;-84
2022/11/07 12:27:28;;;;;;;9.27;2.33;;;14.50;99.90;;;;;;5062868;28;20643;-84
2022/11/07 12:30:13;;;;;;;11.63;3.42;;;14.60;99.90;;;;;;5089718;28;20047;-84
2022/11/07 12:33:07;;;;;;;13.30;4.07;;;14.70;99.90;;;;;;5087258;28;20047;-84
2022/11/07 12:35:35;;;;;;;10.88;2.40;;;14.90;99.90;;;;;;5073497;28;20044;-84
2022/11/07 12:38:40;;;;;;;9.18;2.45;;;15.10;99.90;;;;;;5073684;28;20070;-84
2022/11/07 12:41:11;;;;;;;11.93;3.58;;;15.20;99.90;;;;;;5090618;28;20048;-84
2022/11/07 12:43:54;;;;;;;13.07;3.90;;;15.20;99.90;;;;;;5089940;28;20044;-84
2022/11/07 12:46:29;;;;;;;12.57;4.00;;;15.20;99.90;;;;;;5090384;28;20078;-84
2022/11/07 12:49:29;;;;;;;5.90;2.08;;;15.10;99.90;;;;;;5073394;28;20048;-84
2022/11/07 12:52:02;;;;;;;12.85;3.20;;;15.20;99.90;;;;;;5100766;27;20059;-84
2022/11/07 12:54:50;;;;;;;13.98;3.88;;;15.40;99.90;;;;;;5073511;28;20052;-84
2022/11/07 12:57:23;;;;;;;8.60;2.45;;;15.40;99.90;;;;;;5070027;28;20040;-84
2022/11/07 13:00:01;;;;;;;12.60;4.00;;;15.20;99.90;;;;;;5087247;28;20040;-85